createdAt,value
2022-10-05T00:01:00.997Z,99528.69
2022-10-05T00:03:37.827Z,99540.41
2022-10-05T00:06:06.377Z,99540.44
2022-10-05T00:08:36.474Z,99548.63
2022-10-05T00:11:08.678Z,99542.53
2022-10-05T00:13:37.099Z,99544.31
2022-10-05T00:16:24.112Z,99554.50
2022-10-05T00:18:55.158Z,99558.06
2022-10-05T00:21:28.600Z,99561.41
2022-10-05T00:23:59.373Z,99560.91
2022-10-05T00:28:56.760Z,99580.03
2022-10-05T00:31:33.995Z,99580.09
2022-10-05T00:34:02.514Z,99590.56
2022-10-05T00:36:31.045Z,99602.28
2022-10-05T00:39:02.850Z,99591.09
2022-10-05T00:41:48.902Z,99597.22
2022-10-05T00:44:35.859Z,99598.50
2022-10-05T00:47:31.507Z,99597.78
2022-10-05T00:50:23.750Z,99593.72
2022-10-05T00:53:04.848Z,99608.00
2022-10-05T00:55:56.009Z,99610.31
2022-10-05T00:58:33.088Z,99616.72
2022-10-05T01:01:14.095Z,99617.78
2022-10-05T01:04:00.402Z,99620.09
2022-10-05T01:06:34.763Z,99625.69
2022-10-05T01:09:40.089Z,99627.53
2022-10-05T01:12:34.209Z,99629.81
2022-10-05T01:15:40.735Z,99635.69
2022-10-05T01:18:09.092Z,99639.50
2022-10-05T01:21:02.079Z,99650.00
2022-10-05T01:23:54.333Z,99653.56
2022-10-05T01:26:32.040Z,99657.69
2022-10-05T01:29:19.966Z,99662.53
2022-10-05T01:32:00.813Z,99657.44
2022-10-05T01:34:44.467Z,99671.72
2022-10-05T01:37:28.213Z,99672.47
2022-10-05T01:40:04.343Z,99677.56
2022-10-05T01:42:44.623Z,99673.50
2022-10-05T01:45:39.101Z,99665.59
2022-10-05T01:48:18.720Z,99668.38
2022-10-05T01:51:05.805Z,99661.72
2022-10-05T01:53:49.095Z,99676.25
2022-10-05T01:56:32.487Z,99672.72
2022-10-05T01:59:17.603Z,99670.91
2022-10-05T02:02:06.385Z,99678.31
2022-10-05T02:05:01.389Z,99679.56
2022-10-05T02:07:40.075Z,99686.72
2022-10-05T02:10:26.329Z,99687.47
2022-10-05T02:13:02.061Z,99678.53
2022-10-05T02:15:45.273Z,99670.59
2022-10-05T02:18:20.900Z,99672.09
2022-10-05T02:20:51.151Z,99678.22
2022-10-05T02:23:34.676Z,99674.59
2022-10-05T02:26:04.542Z,99675.63
2022-10-05T02:28:56.770Z,99672.81
2022-10-05T02:31:56.785Z,99673.28
2022-10-05T02:34:44.992Z,99667.66
2022-10-05T02:37:24.182Z,99667.88
2022-10-05T02:40:30.705Z,99656.09
2022-10-05T02:43:22.337Z,99670.88
2022-10-05T02:46:02.654Z,99671.59
2022-10-05T02:48:52.068Z,99672.84
2022-10-05T02:51:25.702Z,99668.47
2022-10-05T02:54:24.529Z,99674.34
2022-10-05T02:56:58.500Z,99671.50
2022-10-05T02:59:41.806Z,99669.72
2022-10-05T03:02:34.287Z,99666.59
2022-10-05T03:05:17.874Z,99669.66
2022-10-05T03:08:19.516Z,99668.31
2022-10-05T03:10:57.860Z,99671.66
2022-10-05T03:13:38.357Z,99667.53
2022-10-05T03:16:15.935Z,99670.59
2022-10-05T03:18:47.100Z,99669.53
2022-10-05T03:21:49.556Z,99662.09
2022-10-05T03:24:45.087Z,99663.56
2022-10-05T03:27:42.155Z,99659.63
2022-10-05T03:30:13.438Z,99655.50
2022-10-05T03:32:49.739Z,99651.88
2022-10-05T03:35:26.958Z,99646.16
2022-10-05T03:38:03.508Z,99644.81
2022-10-05T03:40:57.957Z,99642.97
2022-10-05T03:43:55.437Z,99633.19
2022-10-05T03:46:36.404Z,99633.63
2022-10-05T03:49:31.865Z,99631.75
2022-10-05T03:52:12.534Z,99626.03
2022-10-05T03:54:57.308Z,99618.84
2022-10-05T03:57:29.913Z,99618.22
2022-10-05T04:00:06.062Z,99620.22
2022-10-05T04:03:03.401Z,99607.34
2022-10-05T04:05:40.198Z,99610.38
2022-10-05T04:08:32.692Z,99602.63
2022-10-05T04:11:07.370Z,99598.44
2022-10-05T04:13:44.644Z,99592.75
2022-10-05T04:16:16.450Z,99587.00
2022-10-05T04:19:16.571Z,99581.50
2022-10-05T04:22:13.651Z,99579.84
2022-10-05T04:24:51.199Z,99572.50
2022-10-05T04:27:51.867Z,99568.81
2022-10-05T04:30:21.333Z,99568.66
2022-10-05T04:32:58.850Z,99557.50
2022-10-05T04:35:46.407Z,99554.59
2022-10-05T04:38:41.246Z,99544.19
2022-10-05T04:41:31.037Z,99540.81
2022-10-05T04:44:08.187Z,99533.22
2022-10-05T04:46:52.001Z,99533.13
2022-10-05T04:49:53.619Z,99521.16
2022-10-05T04:53:00.006Z,99517.50
2022-10-05T04:55:53.237Z,99516.06
2022-10-05T04:59:05.897Z,99506.41
2022-10-05T05:02:06.874Z,99500.97
2022-10-05T05:04:59.946Z,99501.97
2022-10-05T05:07:55.248Z,99493.16
2022-10-05T05:10:49.331Z,99493.06
2022-10-05T05:13:39.672Z,99488.59
2022-10-05T05:16:28.655Z,99479.78
2022-10-05T05:19:19.346Z,99477.56
2022-10-05T05:22:05.482Z,99478.97
2022-10-05T05:25:05.519Z,99466.25
2022-10-05T05:27:51.943Z,99468.31
2022-10-05T05:30:44.795Z,99462.00
2022-10-05T05:33:37.939Z,99471.50
2022-10-05T05:36:45.503Z,99474.66
2022-10-05T05:39:49.217Z,99467.84
2022-10-05T05:42:51.502Z,99465.88
2022-10-05T05:45:49.852Z,99459.78
2022-10-05T05:48:36.716Z,99453.59
2022-10-05T05:51:19.612Z,99445.00
2022-10-05T05:54:04.948Z,99451.28
2022-10-05T05:56:40.524Z,99440.63
2022-10-05T05:59:28.094Z,99444.06
2022-10-05T06:02:26.631Z,99428.53
2022-10-05T06:05:28.808Z,99426.88
2022-10-05T06:08:02.728Z,99422.53
2022-10-05T06:10:44.966Z,99422.75
2022-10-05T06:13:37.718Z,99412.41
2022-10-05T06:16:11.401Z,99410.31
2022-10-05T06:18:44.790Z,99401.50
2022-10-05T06:21:24.584Z,99401.34
2022-10-05T06:24:17.284Z,99391.44
2022-10-05T06:27:23.545Z,99377.19
2022-10-05T06:30:05.474Z,99372.09
2022-10-05T06:32:43.031Z,99373.81
2022-10-05T06:35:41.330Z,99365.53
2022-10-05T06:38:16.853Z,99358.34
2022-10-05T06:41:12.930Z,99353.25
2022-10-05T06:43:58.396Z,99346.50
2022-10-05T06:46:32.829Z,99342.13
2022-10-05T06:49:17.023Z,99340.06
2022-10-05T06:52:18.251Z,99342.00
2022-10-05T06:55:24.794Z,99325.41
2022-10-05T06:57:59.226Z,99329.41
2022-10-05T07:00:50.490Z,99308.69
2022-10-05T07:03:33.554Z,99305.34
2022-10-05T07:06:18.561Z,99296.84
2022-10-05T07:09:08.062Z,99291.78
2022-10-05T07:12:02.284Z,99285.94
2022-10-05T07:14:44.860Z,99275.75
2022-10-05T07:17:40.490Z,99268.03
2022-10-05T07:20:17.900Z,99268.22
2022-10-05T07:23:04.133Z,99255.59
2022-10-05T07:25:51.159Z,99256.16
2022-10-05T07:28:25.342Z,99245.38
2022-10-05T07:31:13.010Z,99248.78
2022-10-05T07:33:54.590Z,99243.69
2022-10-05T07:37:02.334Z,99238.56
2022-10-05T07:40:01.136Z,99232.28
2022-10-05T07:42:48.926Z,99233.22
2022-10-05T07:45:22.559Z,99219.44
2022-10-05T07:48:00.490Z,99212.81
2022-10-05T07:50:43.919Z,99210.34
2022-10-05T07:53:29.928Z,99211.47
2022-10-05T07:56:06.649Z,99208.03
2022-10-05T07:58:59.524Z,99190.88
2022-10-05T08:01:35.611Z,99184.78
2022-10-05T08:04:12.802Z,99185.53
2022-10-05T08:07:04.404Z,99177.94
2022-10-05T08:09:35.506Z,99176.78
2022-10-05T08:12:29.058Z,99166.78
2022-10-05T08:15:04.765Z,99164.53
2022-10-05T08:17:57.209Z,99167.72
2022-10-05T08:20:49.661Z,99153.19
2022-10-05T08:23:44.800Z,99158.44
2022-10-05T08:26:41.052Z,99162.91
2022-10-05T08:29:13.962Z,99154.78
2022-10-05T08:31:47.955Z,99150.22
2022-10-05T08:34:38.136Z,99137.78
2022-10-05T08:37:15.444Z,99136.06
2022-10-05T08:39:52.394Z,99132.81
2022-10-05T08:42:50.744Z,99130.34
2022-10-05T08:45:24.635Z,99131.44
2022-10-05T08:48:14.587Z,99141.03
2022-10-05T08:51:04.074Z,99136.47
2022-10-05T08:53:56.872Z,99132.69
2022-10-05T08:56:38.931Z,99130.94
2022-10-05T08:59:43.856Z,99142.59
2022-10-05T09:02:39.469Z,99140.88
2022-10-05T09:05:44.810Z,99142.75
2022-10-05T09:08:42.449Z,99138.78
2022-10-05T09:11:32.882Z,99131.38
2022-10-05T09:14:08.621Z,99141.50
2022-10-05T09:16:48.922Z,99142.59
2022-10-05T09:19:51.887Z,99148.59
2022-10-05T09:22:49.086Z,99145.38
2022-10-05T09:25:25.068Z,99148.53
2022-10-05T09:28:00.218Z,99149.63
2022-10-05T09:30:44.022Z,99149.97
2022-10-05T09:33:14.974Z,99149.00
2022-10-05T09:36:03.018Z,99154.44
2022-10-05T09:38:47.904Z,99146.84
2022-10-05T09:41:41.037Z,99144.91
2022-10-05T09:44:37.314Z,99146.75
2022-10-05T09:47:37.802Z,99156.31
2022-10-05T09:50:34.472Z,99145.38
2022-10-05T09:53:31.260Z,99153.41
2022-10-05T09:56:02.314Z,99152.97
2022-10-05T09:58:42.004Z,99158.97
2022-10-05T10:01:32.742Z,99170.59
2022-10-05T10:04:17.171Z,99173.00
2022-10-05T10:07:05.927Z,99173.31
2022-10-05T10:09:49.484Z,99179.31
2022-10-05T10:12:51.539Z,99176.81
2022-10-05T10:16:14.956Z,99182.00
2022-10-05T10:18:55.551Z,99184.94
2022-10-05T10:21:51.115Z,99182.47
2022-10-05T10:24:25.512Z,99186.91
2022-10-05T10:30:28.435Z,99194.25
2022-10-05T10:33:23.167Z,99193.81
2022-10-05T10:36:31.191Z,99197.50
2022-10-05T10:39:26.882Z,99196.09
2022-10-05T10:42:26.271Z,99200.34
2022-10-05T10:45:13.046Z,99200.97
2022-10-05T10:48:22.579Z,99199.56
2022-10-05T10:51:13.801Z,99201.72
2022-10-05T10:53:59.094Z,99203.13
2022-10-05T10:56:59.623Z,99205.47
2022-10-05T10:59:49.558Z,99215.28
2022-10-05T11:03:06.845Z,99211.28
2022-10-05T11:05:56.408Z,99219.06
2022-10-05T11:08:55.744Z,99224.78
2022-10-05T11:12:02.549Z,99231.28
2022-10-05T11:14:53.350Z,99234.91
2022-10-05T11:17:24.759Z,99231.66
2022-10-05T11:20:24.382Z,99237.59
2022-10-05T11:22:58.497Z,99248.41
2022-10-05T11:25:32.496Z,99257.94
2022-10-05T11:28:18.288Z,99257.50
2022-10-05T11:30:50.286Z,99257.03
2022-10-05T11:33:59.631Z,99264.25
2022-10-05T11:36:41.182Z,99259.66
2022-10-05T11:39:21.692Z,99270.47
2022-10-05T11:41:52.621Z,99279.22
2022-10-05T11:44:58.530Z,99283.84
2022-10-05T11:47:59.269Z,99285.69
2022-10-05T11:50:39.444Z,99287.50
2022-10-05T11:53:15.244Z,99301.34
2022-10-05T11:56:10.863Z,99294.19
2022-10-05T11:58:57.442Z,99299.56
2022-10-05T12:01:46.963Z,99306.47
2022-10-05T12:04:35.576Z,99304.72
2022-10-05T12:07:22.503Z,99313.72
2022-10-05T12:10:33.692Z,99311.44
2022-10-05T12:13:13.010Z,99321.91
2022-10-05T12:16:39.895Z,99325.03
2022-10-05T12:19:18.902Z,99327.63
2022-10-05T12:22:16.273Z,99325.09
2022-10-05T12:25:02.903Z,99328.97
2022-10-05T12:27:54.134Z,99337.72
2022-10-05T12:30:52.388Z,99343.88
2022-10-05T12:33:39.342Z,99338.00
2022-10-05T12:36:16.481Z,99339.78
2022-10-05T12:39:02.500Z,99351.56
2022-10-05T12:41:49.391Z,99350.59
2022-10-05T12:44:49.620Z,99354.44
2022-10-05T12:47:28.780Z,99353.47
2022-10-05T12:50:02.860Z,99358.31
2022-10-05T12:53:03.157Z,99356.00
2022-10-05T12:56:02.964Z,99370.59
2022-10-05T12:58:58.535Z,99382.91
2022-10-05T13:01:38.169Z,99382.66
2022-10-05T13:04:32.067Z,99385.47
2022-10-05T13:07:06.074Z,99394.44
2022-10-05T13:10:09.880Z,99399.06
2022-10-05T13:13:06.820Z,99403.16
2022-10-05T13:15:43.053Z,99404.44
2022-10-05T13:18:20.500Z,99415.69
2022-10-05T13:21:05.405Z,99416.19
2022-10-05T13:23:58.166Z,99425.16
2022-10-05T13:26:37.476Z,99426.44
2022-10-05T13:29:20.703Z,99423.63
2022-10-05T13:31:57.971Z,99430.53
2022-10-05T13:34:44.577Z,99430.53
2022-10-05T13:37:32.820Z,99431.28
2022-10-05T13:40:35.099Z,99436.16
2022-10-05T13:43:06.871Z,99439.72
2022-10-05T13:45:37.852Z,99442.53
2022-10-05T13:48:42.457Z,99452.50
2022-10-05T13:51:19.757Z,99458.13
2022-10-05T13:54:23.033Z,99460.41
2022-10-05T13:56:57.875Z,99448.41
2022-10-05T13:59:37.132Z,99462.47
2022-10-05T14:02:24.116Z,99462.97
2022-10-05T14:05:03.651Z,99467.31
2022-10-05T14:07:39.744Z,99475.00
2022-10-05T14:10:17.144Z,99473.69
2022-10-05T14:12:46.855Z,99474.22
2022-10-05T14:15:42.118Z,99468.59
2022-10-05T14:18:28.934Z,99473.69
2022-10-05T14:21:16.831Z,99468.84
2022-10-05T14:23:45.842Z,99470.38
2022-10-05T14:26:34.402Z,99466.03
2022-10-05T14:29:18.972Z,99472.41
2022-10-05T14:32:02.829Z,99478.03
2022-10-05T14:34:40.305Z,99486.47
2022-10-05T14:37:23.408Z,99499.00
2022-10-05T14:39:55.693Z,99496.19
2022-10-05T14:42:26.580Z,99504.63
2022-10-05T14:45:15.240Z,99500.28
2022-10-05T14:48:01.176Z,99500.28
2022-10-05T14:50:33.422Z,99503.09
2022-10-05T14:53:19.691Z,99503.63
2022-10-05T14:56:12.506Z,99505.69
2022-10-05T14:59:02.506Z,99503.63
2022-10-05T15:01:34.833Z,99506.97
2022-10-05T15:04:36.446Z,99516.69
2022-10-05T15:07:22.621Z,99520.25
2022-10-05T15:10:03.688Z,99520.78
2022-10-05T15:12:40.936Z,99516.69
2022-10-05T15:15:33.923Z,99520.00
2022-10-05T15:18:26.222Z,99525.63
2022-10-05T15:21:17.882Z,99513.63
2022-10-05T15:24:03.509Z,99512.88
2022-10-05T15:26:58.359Z,99518.25
2022-10-05T15:29:37.057Z,99515.97
2022-10-05T15:32:17.218Z,99510.84
2022-10-05T15:35:04.932Z,99512.16
2022-10-05T15:37:48.715Z,99509.84
2022-10-05T15:40:38.149Z,99509.09
2022-10-05T15:43:14.828Z,99505.50
2022-10-05T15:46:04.655Z,99504.00
2022-10-05T15:48:54.194Z,99502.72
2022-10-05T15:51:43.327Z,99504.00
2022-10-05T15:54:44.954Z,99509.63
2022-10-05T15:57:13.416Z,99510.38
2022-10-05T15:59:59.193Z,99506.81
2022-10-05T16:02:53.016Z,99506.81
2022-10-05T16:06:04.657Z,99509.38
2022-10-05T16:08:57.408Z,99500.94
2022-10-05T16:12:18.817Z,99493.78
2022-10-05T16:14:50.177Z,99495.84
2022-10-05T16:17:36.427Z,99493.56
2022-10-05T16:20:24.596Z,99486.41
2022-10-05T16:23:00.518Z,99475.69
2022-10-05T16:26:10.381Z,99480.53
2022-10-05T16:28:54.098Z,99476.19
2022-10-05T16:31:41.670Z,99475.94
2022-10-05T16:34:37.839Z,99475.69
2022-10-05T16:37:32.920Z,99469.31
2022-10-05T16:40:06.841Z,99462.94
2022-10-05T16:43:06.919Z,99462.16
2022-10-05T16:45:53.053Z,99461.94
2022-10-05T16:48:27.903Z,99449.94
2022-10-05T16:50:59.226Z,99452.72
2022-10-05T16:53:38.576Z,99449.16
2022-10-05T16:56:26.239Z,99449.69
2022-10-05T16:59:20.904Z,99448.41
2022-10-05T17:02:25.377Z,99447.63
2022-10-05T17:05:25.063Z,99451.72
2022-10-05T17:08:17.475Z,99453.00
2022-10-05T17:11:00.735Z,99459.41
2022-10-05T17:13:44.537Z,99451.50
2022-10-05T17:16:15.575Z,99449.19
2022-10-05T17:19:21.054Z,99454.81
2022-10-05T17:22:40.593Z,99452.53
2022-10-05T17:25:16.062Z,99447.44
2022-10-05T17:27:54.778Z,99444.63
2022-10-05T17:30:48.450Z,99444.38
2022-10-05T17:33:25.783Z,99445.66
2022-10-05T17:35:59.298Z,99444.91
2022-10-05T17:38:36.573Z,99440.56
2022-10-05T17:41:27.815Z,99439.81
2022-10-05T17:44:08.445Z,99449.50
2022-10-05T17:46:48.902Z,99450.25
2022-10-05T17:49:27.791Z,99440.31
2022-10-05T17:52:14.275Z,99438.00
2022-10-05T17:55:03.818Z,99438.25
2022-10-05T17:57:34.991Z,99430.59
2022-10-05T18:00:06.245Z,99426.53
2022-10-05T18:02:39.341Z,99424.47
2022-10-05T18:05:13.565Z,99428.06
2022-10-05T18:07:44.119Z,99422.44
2022-10-05T18:10:18.450Z,99421.91
2022-10-05T18:13:35.880Z,99417.81
2022-10-05T18:16:04.332Z,99412.97
2022-10-05T18:18:44.973Z,99410.38
2022-10-05T18:21:16.364Z,99420.09
2022-10-05T18:23:53.954Z,99423.69
2022-10-05T18:26:54.689Z,99418.28
2022-10-05T18:30:03.442Z,99416.78
2022-10-05T18:32:46.549Z,99413.44
2022-10-05T18:35:42.311Z,99414.97
2022-10-05T18:38:29.353Z,99407.28
2022-10-05T18:41:03.325Z,99397.59
2022-10-05T18:43:49.626Z,99390.69
2022-10-05T18:46:40.256Z,99385.06
2022-10-05T18:49:30.907Z,99387.34
2022-10-05T18:52:16.041Z,99380.19
2022-10-05T18:55:02.898Z,99379.44
2022-10-05T18:57:51.083Z,99378.69
2022-10-05T19:00:23.572Z,99372.28
2022-10-05T19:03:02.507Z,99359.53
2022-10-05T19:06:22.020Z,99360.81
2022-10-05T19:09:05.096Z,99359.28
2022-10-05T19:12:02.654Z,99365.97
2022-10-05T19:15:01.693Z,99372.09
2022-10-05T19:17:50.045Z,99371.09
2022-10-05T19:20:38.191Z,99361.63
2022-10-05T19:23:21.525Z,99365.47
2022-10-05T19:26:04.212Z,99361.66
2022-10-05T19:28:47.167Z,99359.13
2022-10-05T19:31:49.252Z,99365.28
2022-10-05T19:34:29.515Z,99362.22
2022-10-05T19:37:41.135Z,99356.88
2022-10-05T19:40:40.185Z,99369.41
2022-10-05T19:43:37.403Z,99362.03
2022-10-05T19:46:17.778Z,99360.50
2022-10-05T19:48:57.880Z,99366.63
2022-10-05T19:51:30.391Z,99360.00
2022-10-05T19:54:13.628Z,99361.31
2022-10-05T19:56:51.436Z,99365.16
2022-10-05T19:59:26.722Z,99357.22
2022-10-05T20:01:59.345Z,99357.75
2022-10-05T20:04:45.634Z,99364.63
2022-10-05T20:07:17.577Z,99365.69
2022-10-05T20:09:58.893Z,99358.53
2022-10-05T20:12:51.456Z,99362.63
2022-10-05T20:15:41.161Z,99368.53
2022-10-05T20:19:06.453Z,99373.88
2022-10-05T20:21:43.914Z,99366.50
2022-10-05T20:24:26.741Z,99369.84
2022-10-05T20:27:06.975Z,99368.81
2022-10-05T20:29:43.638Z,99372.66
2022-10-05T20:32:18.958Z,99364.00
2022-10-05T20:34:50.298Z,99364.50
2022-10-05T20:37:21.022Z,99364.25
2022-10-05T20:39:49.497Z,99364.78
2022-10-05T20:42:17.883Z,99354.06
2022-10-05T20:44:46.955Z,99356.63
2022-10-05T20:47:15.547Z,99357.63
2022-10-05T20:49:44.001Z,99358.16
2022-10-05T20:52:16.004Z,99360.19
2022-10-05T20:54:47.257Z,99367.09
2022-10-05T20:57:15.650Z,99367.59
2022-10-05T20:59:44.035Z,99370.94
2022-10-05T21:02:12.440Z,99370.16
2022-10-05T21:04:41.879Z,99376.28
2022-10-05T21:07:10.647Z,99372.72
2022-10-05T21:09:40.333Z,99365.59
2022-10-05T21:12:08.683Z,99368.91
2022-10-05T21:14:38.588Z,99379.91
2022-10-05T21:17:07.731Z,99375.56
2022-10-05T21:19:40.544Z,99375.31
2022-10-05T21:22:10.235Z,99384.97
2022-10-05T21:24:40.299Z,99384.22
2022-10-05T21:27:10.554Z,99379.13
2022-10-05T21:29:41.874Z,99383.97
2022-10-05T21:32:12.358Z,99374.03
2022-10-05T21:34:41.448Z,99374.03
2022-10-05T21:37:10.285Z,99380.16
2022-10-05T21:39:38.720Z,99373.03
2022-10-05T21:42:07.084Z,99369.44
2022-10-05T21:44:36.216Z,99377.88
2022-10-05T21:47:05.282Z,99373.53
2022-10-05T21:49:34.085Z,99369.97
2022-10-05T21:52:04.330Z,99369.97
2022-10-05T21:54:34.771Z,99370.47
2022-10-05T21:57:04.065Z,99372.00
2022-10-05T21:59:35.399Z,99371.25
2022-10-05T22:02:03.947Z,99373.28
2022-10-05T22:04:32.314Z,99383.75
2022-10-05T22:07:01.078Z,99383.75
2022-10-05T22:09:29.507Z,99375.84
2022-10-05T22:11:58.427Z,99379.94
2022-10-05T22:14:26.899Z,99387.06
2022-10-05T22:16:55.948Z,99387.81
2022-10-05T22:19:24.488Z,99391.91
2022-10-05T22:21:52.807Z,99397.53
2022-10-05T22:24:21.155Z,99395.22
2022-10-05T22:26:52.370Z,99401.59
2022-10-05T22:29:21.496Z,99408.50
2022-10-05T22:31:50.408Z,99403.41
2022-10-05T22:34:19.302Z,99406.19
2022-10-05T22:36:48.734Z,99410.28
2022-10-05T22:39:18.186Z,99419.22
2022-10-05T22:41:46.830Z,99426.88
2022-10-05T22:44:15.274Z,99441.41
2022-10-05T22:46:43.727Z,99447.53
2022-10-05T22:49:12.191Z,99450.56
2022-10-05T22:51:40.506Z,99456.94
2022-10-05T22:54:08.972Z,99459.00
2022-10-05T22:56:37.323Z,99456.94
2022-10-05T22:59:05.699Z,99465.63
2022-10-05T23:01:34.062Z,99472.00
2022-10-05T23:04:03.035Z,99471.72
2022-10-05T23:06:32.619Z,99480.91
2022-10-05T23:09:00.904Z,99472.75
2022-10-05T23:11:31.106Z,99484.22
2022-10-05T23:14:00.840Z,99490.06
2022-10-05T23:16:30.685Z,99493.63
2022-10-05T23:19:00.127Z,99497.97
2022-10-05T23:21:30.930Z,99501.03
2022-10-05T23:23:59.277Z,99506.13
2022-10-05T23:26:27.956Z,99502.81
2022-10-05T23:28:56.362Z,99510.75
2022-10-05T23:31:31.582Z,99517.13
2022-10-05T23:34:00.005Z,99522.22
2022-10-05T23:36:33.211Z,99538.53
2022-10-05T23:39:01.831Z,99544.41
2022-10-05T23:41:30.234Z,99546.69
2022-10-05T23:43:58.628Z,99552.56
2022-10-05T23:46:27.191Z,99562.00
2022-10-05T23:48:55.678Z,99571.41
2022-10-05T23:51:24.050Z,99585.69
2022-10-05T23:53:52.518Z,99591.09
2022-10-05T23:56:20.890Z,99599.75
2022-10-05T23:58:49.243Z,99596.44
